createdAt,value
2022-09-02T00:00:49.150Z,13.29
2022-09-02T00:01:53.632Z,13.26
2022-09-02T00:02:58.047Z,13.24
2022-09-02T00:04:02.227Z,13.23
2022-09-02T00:05:06.494Z,13.22
2022-09-02T00:06:10.810Z,13.21
2022-09-02T00:07:15.107Z,13.22
2022-09-02T00:08:19.445Z,13.20
2022-09-02T00:09:23.796Z,13.19
2022-09-02T00:10:28.121Z,13.16
2022-09-02T00:11:32.452Z,13.14
2022-09-02T00:12:36.770Z,13.12
2022-09-02T00:13:41.214Z,13.12
2022-09-02T00:14:45.491Z,13.12
2022-09-02T00:15:49.738Z,13.14
2022-09-02T00:16:54.149Z,13.14
2022-09-02T00:17:59.105Z,13.16
2022-09-02T00:19:02.765Z,13.17
2022-09-02T00:20:07.042Z,13.17
2022-09-02T00:21:11.345Z,13.17
2022-09-02T00:22:15.558Z,13.17
2022-09-02T00:23:20.037Z,13.17
2022-09-02T00:24:24.187Z,13.18
2022-09-02T00:25:28.662Z,13.19
2022-09-02T00:26:32.873Z,13.20
2022-09-02T00:27:37.258Z,13.21
2022-09-02T00:28:48.916Z,13.22
2022-09-02T00:29:45.938Z,13.23
2022-09-02T00:30:50.286Z,13.24
2022-09-02T00:31:54.803Z,13.24
2022-09-02T00:32:59.013Z,13.24
2022-09-02T00:34:03.466Z,13.25
2022-09-02T00:35:07.742Z,13.25
2022-09-02T00:36:12.092Z,13.25
2022-09-02T00:37:16.426Z,13.26
2022-09-02T00:38:20.751Z,13.27
2022-09-02T00:39:25.126Z,13.29
2022-09-02T00:40:29.540Z,13.31
2022-09-02T00:41:33.894Z,13.30
2022-09-02T00:42:38.229Z,13.27
2022-09-02T00:43:42.571Z,13.23
2022-09-02T00:44:46.889Z,13.16
2022-09-02T00:45:51.467Z,13.08
2022-09-02T00:46:55.619Z,13.00
2022-09-02T00:47:59.869Z,12.92
2022-09-02T00:49:04.209Z,12.84
2022-09-02T00:50:08.498Z,12.78
2022-09-02T00:51:12.903Z,12.73
2022-09-02T00:52:17.343Z,12.69
2022-09-02T00:53:21.506Z,12.66
2022-09-02T00:54:25.740Z,12.62
2022-09-02T00:55:30.183Z,12.58
2022-09-02T00:56:34.434Z,12.57
2022-09-02T00:57:38.763Z,12.56
2022-09-02T00:58:43.110Z,12.57
2022-09-02T00:59:47.419Z,12.56
2022-09-02T01:00:51.830Z,12.57
2022-09-02T01:01:56.401Z,12.58
2022-09-02T01:03:00.284Z,12.59
2022-09-02T01:04:04.813Z,12.61
2022-09-02T01:05:09.053Z,12.62
2022-09-02T01:06:13.405Z,12.63
2022-09-02T01:07:17.749Z,12.65
2022-09-02T01:08:22.088Z,12.66
2022-09-02T01:09:26.386Z,12.67
2022-09-02T01:10:30.728Z,12.67
2022-09-02T01:11:35.053Z,12.67
2022-09-02T01:12:39.475Z,12.68
2022-09-02T01:13:43.720Z,12.68
2022-09-02T01:14:48.054Z,12.69
2022-09-02T01:15:52.428Z,12.70
2022-09-02T01:16:56.709Z,12.72
2022-09-02T01:18:01.120Z,12.72
2022-09-02T01:19:05.417Z,12.72
2022-09-02T01:20:09.578Z,12.72
2022-09-02T01:21:14.035Z,12.71
2022-09-02T01:22:18.400Z,12.69
2022-09-02T01:23:25.678Z,12.66
2022-09-02T01:24:29.092Z,12.63
2022-09-02T01:25:33.500Z,12.60
2022-09-02T01:26:37.763Z,12.58
2022-09-02T01:27:42.046Z,12.57
2022-09-02T01:28:46.371Z,12.56
2022-09-02T01:29:50.735Z,12.56
2022-09-02T01:30:55.021Z,12.57
2022-09-02T01:31:59.422Z,12.57
2022-09-02T01:33:03.653Z,12.57
2022-09-02T01:34:08.048Z,12.57
2022-09-02T01:35:12.450Z,12.56
2022-09-02T01:36:16.604Z,12.55
2022-09-02T01:37:20.968Z,12.55
2022-09-02T01:38:25.286Z,12.54
2022-09-02T01:39:29.508Z,12.51
2022-09-02T01:40:33.929Z,12.47
2022-09-02T01:41:38.204Z,12.43
2022-09-02T01:42:42.645Z,12.40
2022-09-02T01:43:46.915Z,12.37
2022-09-02T01:44:51.223Z,12.34
2022-09-02T01:45:55.526Z,12.31
2022-09-02T01:47:00.002Z,12.29
2022-09-02T01:48:04.142Z,12.27
2022-09-02T01:49:08.479Z,12.26
2022-09-02T01:50:12.799Z,12.26
2022-09-02T01:51:17.187Z,12.26
2022-09-02T01:52:21.485Z,12.25
2022-09-02T01:53:25.771Z,12.25
2022-09-02T01:54:29.995Z,12.24
2022-09-02T01:55:34.348Z,12.23
2022-09-02T01:56:38.663Z,12.21
2022-09-02T01:57:42.987Z,12.20
2022-09-02T01:58:47.297Z,12.19
2022-09-02T01:59:51.447Z,12.18
2022-09-02T02:00:55.791Z,12.16
2022-09-02T02:02:00.225Z,12.14
2022-09-02T02:03:04.431Z,12.13
2022-09-02T02:04:13.187Z,12.12
2022-09-02T02:05:13.052Z,12.12
2022-09-02T02:06:17.278Z,12.11
2022-09-02T02:07:21.558Z,12.10
2022-09-02T02:08:25.794Z,12.09
2022-09-02T02:09:30.059Z,12.08
2022-09-02T02:10:34.435Z,12.07
2022-09-02T02:11:38.853Z,12.06
2022-09-02T02:12:42.991Z,12.05
2022-09-02T02:13:47.361Z,12.03
2022-09-02T02:14:51.603Z,12.02
2022-09-02T02:15:56.024Z,12.00
2022-09-02T02:17:00.289Z,11.98
2022-09-02T02:18:04.565Z,11.96
2022-09-02T02:19:08.835Z,11.94
2022-09-02T02:20:13.060Z,11.94
2022-09-02T02:21:17.442Z,11.93
2022-09-02T02:22:21.734Z,11.92
2022-09-02T02:23:25.948Z,11.91
2022-09-02T02:24:30.301Z,11.90
2022-09-02T02:25:34.617Z,11.89
2022-09-02T02:26:38.940Z,11.86
2022-09-02T02:27:43.763Z,11.83
2022-09-02T02:28:47.614Z,11.79
2022-09-02T02:29:51.882Z,11.76
2022-09-02T02:30:56.160Z,11.74
2022-09-02T02:32:00.462Z,11.72
2022-09-02T02:33:04.800Z,11.70
2022-09-02T02:34:09.101Z,11.69
2022-09-02T02:35:13.435Z,11.67
2022-09-02T02:36:17.743Z,11.65
2022-09-02T02:37:25.432Z,11.65
2022-09-02T02:38:26.191Z,11.64
2022-09-02T02:39:30.554Z,11.64
2022-09-02T02:40:34.969Z,11.65
2022-09-02T02:41:39.133Z,11.66
2022-09-02T02:42:43.449Z,11.67
2022-09-02T02:43:47.654Z,11.68
2022-09-02T02:44:52.003Z,11.70
2022-09-02T02:45:56.453Z,11.72
2022-09-02T02:47:00.846Z,11.74
2022-09-02T02:48:05.047Z,11.74
2022-09-02T02:49:09.456Z,11.75
2022-09-02T02:50:13.620Z,11.76
2022-09-02T02:51:17.870Z,11.77
2022-09-02T02:52:22.217Z,11.77
2022-09-02T02:53:26.521Z,11.77
2022-09-02T02:54:35.158Z,11.77
2022-09-02T02:55:34.993Z,11.77
2022-09-02T02:56:39.338Z,11.77
2022-09-02T02:57:43.629Z,11.76
2022-09-02T02:58:47.921Z,11.73
2022-09-02T02:59:52.237Z,11.72
2022-09-02T03:00:56.624Z,11.71
2022-09-02T03:02:01.039Z,11.72
2022-09-02T03:03:05.153Z,11.73
2022-09-02T03:04:09.381Z,11.73
2022-09-02T03:05:13.592Z,11.74
2022-09-02T03:06:21.892Z,11.74
2022-09-02T03:07:22.119Z,11.75
2022-09-02T03:08:26.496Z,11.77
2022-09-02T03:09:30.726Z,11.77
2022-09-02T03:10:35.053Z,11.78
2022-09-02T03:11:39.393Z,11.78
2022-09-02T03:12:43.679Z,11.80
2022-09-02T03:13:47.978Z,11.81
2022-09-02T03:14:52.326Z,11.80
2022-09-02T03:15:56.809Z,11.77
2022-09-02T03:17:00.956Z,11.74
2022-09-02T03:18:05.309Z,11.72
2022-09-02T03:19:09.627Z,11.71
2022-09-02T03:20:13.955Z,11.71
2022-09-02T03:21:18.153Z,11.71
2022-09-02T03:22:22.499Z,11.71
2022-09-02T03:23:26.791Z,11.71
2022-09-02T03:24:31.067Z,11.71
2022-09-02T03:25:36.127Z,11.70
2022-09-02T03:26:39.695Z,11.69
2022-09-02T03:27:43.918Z,11.67
2022-09-02T03:28:48.263Z,11.65
2022-09-02T03:29:52.558Z,11.64
2022-09-02T03:30:56.825Z,11.62
2022-09-02T03:32:01.120Z,11.60
2022-09-02T03:33:05.449Z,11.58
2022-09-02T03:34:09.824Z,11.54
2022-09-02T03:35:14.200Z,11.49
2022-09-02T03:36:18.459Z,11.45
2022-09-02T03:37:22.762Z,11.41
2022-09-02T03:38:27.067Z,11.38
2022-09-02T03:39:31.351Z,11.37
2022-09-02T03:40:35.712Z,11.35
2022-09-02T03:41:39.865Z,11.34
2022-09-02T03:42:44.359Z,11.33
2022-09-02T03:43:48.508Z,11.30
2022-09-02T03:44:52.859Z,11.28
2022-09-02T03:45:57.222Z,11.25
2022-09-02T03:47:01.461Z,11.22
2022-09-02T03:48:05.790Z,11.22
2022-09-02T03:49:10.109Z,11.22
2022-09-02T03:50:14.506Z,11.21
2022-09-02T03:51:18.738Z,11.19
2022-09-02T03:52:23.134Z,11.16
2022-09-02T03:53:27.550Z,11.13
2022-09-02T03:54:31.657Z,11.09
2022-09-02T03:55:35.913Z,11.04
2022-09-02T03:56:40.207Z,11.00
2022-09-02T03:57:44.476Z,10.96
2022-09-02T03:58:48.784Z,10.93
2022-09-02T03:59:53.049Z,10.91
2022-09-02T04:00:57.375Z,10.89
2022-09-02T04:02:01.700Z,10.89
2022-09-02T04:03:05.978Z,10.91
2022-09-02T04:04:10.190Z,10.92
2022-09-02T04:05:15.904Z,10.94
2022-09-02T04:06:18.784Z,10.96
2022-09-02T04:07:23.101Z,10.97
2022-09-02T04:08:27.403Z,10.99
2022-09-02T04:09:31.698Z,11.00
2022-09-02T04:10:36.020Z,11.02
2022-09-02T04:11:40.311Z,11.03
2022-09-02T04:12:44.602Z,11.04
2022-09-02T04:13:48.878Z,11.05
2022-09-02T04:14:53.198Z,11.06
2022-09-02T04:16:01.566Z,11.07
2022-09-02T04:17:01.730Z,11.07
2022-09-02T04:18:06.030Z,11.07
2022-09-02T04:19:10.312Z,11.08
2022-09-02T04:20:14.649Z,11.08
2022-09-02T04:21:18.855Z,11.08
2022-09-02T04:22:23.309Z,11.09
2022-09-02T04:23:27.574Z,11.10
2022-09-02T04:24:31.881Z,11.11
2022-09-02T04:25:36.084Z,11.13
2022-09-02T04:26:44.979Z,11.15
2022-09-02T04:27:44.742Z,11.18
2022-09-02T04:28:48.830Z,11.20
2022-09-02T04:29:53.218Z,11.23
2022-09-02T04:30:57.576Z,11.26
2022-09-02T04:32:01.791Z,11.26
2022-09-02T04:33:06.107Z,11.22
2022-09-02T04:34:10.397Z,11.20
2022-09-02T04:35:14.704Z,11.15
2022-09-02T04:36:18.982Z,11.12
2022-09-02T04:37:23.251Z,11.09
2022-09-02T04:38:27.522Z,11.07
2022-09-02T04:39:31.830Z,11.04
2022-09-02T04:40:36.199Z,11.04
2022-09-02T04:41:40.409Z,11.04
2022-09-02T04:42:44.726Z,11.05
2022-09-02T04:43:48.992Z,11.05
2022-09-02T04:44:53.193Z,11.06
2022-09-02T04:45:57.577Z,11.05
2022-09-02T04:47:01.813Z,11.05
2022-09-02T04:48:06.115Z,11.05
2022-09-02T04:49:10.430Z,11.05
2022-09-02T04:50:14.839Z,11.06
2022-09-02T04:51:19.112Z,11.08
2022-09-02T04:52:23.401Z,11.10
2022-09-02T04:53:27.698Z,11.13
2022-09-02T04:54:32.016Z,11.14
2022-09-02T04:55:36.367Z,11.16
2022-09-02T04:56:40.641Z,11.19
2022-09-02T04:57:44.952Z,11.21
2022-09-02T04:58:49.276Z,11.24
2022-09-02T04:59:53.606Z,11.26
2022-09-02T05:00:57.902Z,11.28
2022-09-02T05:02:02.355Z,11.29
2022-09-02T05:03:06.601Z,11.30
2022-09-02T05:04:10.866Z,11.31
2022-09-02T05:05:15.149Z,11.32
2022-09-02T05:06:19.445Z,11.33
2022-09-02T05:07:23.746Z,11.34
2022-09-02T05:08:28.014Z,11.36
2022-09-02T05:09:32.337Z,11.39
2022-09-02T05:10:36.621Z,11.41
2022-09-02T05:11:40.878Z,11.44
2022-09-02T05:12:45.185Z,11.47
2022-09-02T05:13:49.492Z,11.49
2022-09-02T05:14:53.784Z,11.53
2022-09-02T05:15:58.162Z,11.58
2022-09-02T05:17:07.270Z,11.63
2022-09-02T05:18:06.736Z,11.64
2022-09-02T05:19:11.066Z,11.63
2022-09-02T05:20:15.395Z,11.63
2022-09-02T05:21:19.713Z,11.66
2022-09-02T05:22:24.008Z,11.70
2022-09-02T05:23:28.275Z,11.76
2022-09-02T05:24:32.582Z,11.81
2022-09-02T05:25:36.880Z,11.86
2022-09-02T05:26:41.168Z,11.92
2022-09-02T05:27:45.502Z,11.97
2022-09-02T05:28:49.808Z,12.02
2022-09-02T05:29:54.145Z,12.07
2022-09-02T05:30:58.536Z,12.11
2022-09-02T05:32:02.795Z,12.15
2022-09-02T05:33:07.129Z,12.19
2022-09-02T05:34:11.313Z,12.23
2022-09-02T05:35:15.697Z,12.27
2022-09-02T05:36:19.994Z,12.28
2022-09-02T05:37:24.406Z,12.30
2022-09-02T05:38:28.685Z,12.30
2022-09-02T05:39:33.077Z,12.30
2022-09-02T05:40:37.319Z,12.29
2022-09-02T05:41:41.525Z,12.27
2022-09-02T05:42:45.853Z,12.27
2022-09-02T05:43:50.079Z,12.27
2022-09-02T05:44:54.355Z,12.27
2022-09-02T05:45:58.798Z,12.29
2022-09-02T05:47:03.036Z,12.32
2022-09-02T05:48:07.252Z,12.37
2022-09-02T05:49:11.522Z,12.42
2022-09-02T05:50:15.911Z,12.47
2022-09-02T05:51:20.098Z,12.52
2022-09-02T05:52:24.445Z,12.57
2022-09-02T05:53:28.793Z,12.61
2022-09-02T05:54:33.011Z,12.65
2022-09-02T05:55:37.389Z,12.69
2022-09-02T05:56:45.223Z,12.73
2022-09-02T05:57:46.026Z,12.79
2022-09-02T05:58:50.365Z,12.88
2022-09-02T05:59:54.718Z,12.98
2022-09-02T06:00:59.023Z,13.10
2022-09-02T06:02:03.471Z,13.20
2022-09-02T06:03:07.791Z,13.27
2022-09-02T06:04:11.915Z,13.33
2022-09-02T06:05:16.291Z,13.37
2022-09-02T06:06:20.627Z,13.46
2022-09-02T06:07:24.979Z,13.59
2022-09-02T06:08:29.200Z,13.75
2022-09-02T06:09:33.602Z,13.90
2022-09-02T06:10:37.922Z,14.07
2022-09-02T06:11:42.271Z,14.22
2022-09-02T06:12:46.613Z,14.40
2022-09-02T06:13:51.073Z,14.59
2022-09-02T06:14:55.378Z,14.78
2022-09-02T06:15:59.878Z,14.92
2022-09-02T06:17:04.244Z,15.05
2022-09-02T06:18:08.526Z,15.12
2022-09-02T06:19:16.444Z,15.17
2022-09-02T06:20:17.307Z,15.19
2022-09-02T06:21:21.659Z,15.21
2022-09-02T06:22:26.035Z,15.24
2022-09-02T06:23:30.362Z,15.26
2022-09-02T06:24:34.608Z,15.29
2022-09-02T06:25:39.032Z,15.33
2022-09-02T06:26:43.398Z,15.36
2022-09-02T06:27:47.770Z,15.41
2022-09-02T06:28:52.140Z,15.45
2022-09-02T06:29:56.467Z,15.48
2022-09-02T06:31:00.884Z,15.50
2022-09-02T06:32:05.196Z,15.54
2022-09-02T06:33:09.558Z,15.58
2022-09-02T06:34:13.907Z,15.65
2022-09-02T06:35:18.311Z,15.72
2022-09-02T06:36:22.688Z,15.76
2022-09-02T06:37:27.057Z,15.77
2022-09-02T06:38:31.461Z,15.75
2022-09-02T06:39:35.844Z,15.74
2022-09-02T06:40:40.372Z,15.73
2022-09-02T06:41:44.603Z,15.67
2022-09-02T06:42:48.980Z,15.67
2022-09-02T06:43:53.428Z,15.69
2022-09-02T06:44:57.763Z,15.71
2022-09-02T06:46:02.182Z,15.76
2022-09-02T06:47:06.532Z,15.80
2022-09-02T06:48:10.985Z,15.83
2022-09-02T06:49:15.308Z,15.89
2022-09-02T06:50:19.688Z,15.94
2022-09-02T06:51:38.118Z,15.99
2022-09-02T06:52:41.458Z,16.06
2022-09-02T06:53:45.779Z,16.17
2022-09-02T06:54:50.148Z,16.28
2022-09-02T06:55:54.485Z,16.38
2022-09-02T06:56:58.869Z,16.44
2022-09-02T06:58:03.361Z,16.50
2022-09-02T06:59:07.634Z,16.54
2022-09-02T07:00:12.038Z,16.55
2022-09-02T07:01:16.670Z,16.48
2022-09-02T07:02:20.945Z,16.42
2022-09-02T07:03:25.262Z,16.40
2022-09-02T07:04:29.599Z,16.39
2022-09-02T07:05:33.945Z,16.39
2022-09-02T07:06:38.278Z,16.40
2022-09-02T07:07:42.647Z,16.42
2022-09-02T07:08:46.995Z,16.44
2022-09-02T07:09:54.357Z,16.46
2022-09-02T07:10:57.802Z,16.49
2022-09-02T07:12:04.775Z,16.51
2022-09-02T07:13:06.481Z,16.51
2022-09-02T07:14:10.814Z,16.49
2022-09-02T07:15:15.183Z,16.50
2022-09-02T07:16:22.762Z,16.51
2022-09-02T07:17:23.900Z,16.52
2022-09-02T07:18:28.374Z,16.55
2022-09-02T07:19:32.696Z,16.58
2022-09-02T07:20:37.054Z,16.61
2022-09-02T07:21:41.425Z,16.64
2022-09-02T07:22:45.868Z,16.67
2022-09-02T07:23:50.161Z,16.71
2022-09-02T07:24:54.563Z,16.74
2022-09-02T07:25:58.909Z,16.78
2022-09-02T07:27:03.200Z,16.81
2022-09-02T07:28:07.585Z,16.83
2022-09-02T07:29:11.958Z,16.84
2022-09-02T07:30:16.330Z,16.85
2022-09-02T07:31:20.784Z,16.86
2022-09-02T07:32:25.049Z,16.88
2022-09-02T07:33:29.458Z,16.91
2022-09-02T07:34:33.799Z,16.93
2022-09-02T07:35:38.270Z,16.95
2022-09-02T07:36:42.595Z,16.98
2022-09-02T07:37:46.920Z,16.98
2022-09-02T07:38:51.293Z,17.00
2022-09-02T07:39:55.713Z,17.03
2022-09-02T07:41:00.088Z,17.05
2022-09-02T07:42:04.571Z,17.06
2022-09-02T07:43:08.907Z,17.06
2022-09-02T07:44:13.310Z,17.09
2022-09-02T07:45:17.704Z,17.12
2022-09-02T07:46:22.096Z,17.15
2022-09-02T07:47:26.462Z,17.17
2022-09-02T07:48:30.829Z,17.21
2022-09-02T07:50:39.576Z,17.26
2022-09-02T07:51:43.963Z,17.30
2022-09-02T07:52:48.413Z,17.33
2022-09-02T07:53:52.717Z,17.35
2022-09-02T07:54:57.082Z,17.37
2022-09-02T07:56:01.455Z,17.40
2022-09-02T07:57:05.845Z,17.42
2022-09-02T07:58:10.207Z,17.45
2022-09-02T07:59:14.577Z,17.48
2022-09-02T08:00:18.954Z,17.50
2022-09-02T08:01:23.917Z,17.54
2022-09-02T08:02:27.842Z,17.56
2022-09-02T08:03:32.112Z,17.57
2022-09-02T08:04:36.491Z,17.57
2022-09-02T08:05:40.826Z,17.58
2022-09-02T08:06:45.202Z,17.59
2022-09-02T08:07:49.570Z,17.58
2022-09-02T08:08:53.947Z,17.58
2022-09-02T08:09:58.341Z,17.57
2022-09-02T08:11:02.730Z,17.59
2022-09-02T08:12:07.051Z,17.62
2022-09-02T08:13:11.420Z,17.64
2022-09-02T08:14:16.766Z,17.67
2022-09-02T08:15:20.187Z,17.69
2022-09-02T08:16:24.552Z,17.71
2022-09-02T08:17:28.886Z,17.75
2022-09-02T08:18:33.305Z,17.79
2022-09-02T08:19:37.652Z,17.82
2022-09-02T08:20:42.012Z,17.85
2022-09-02T08:21:46.398Z,17.84
2022-09-02T08:22:59.314Z,17.82
2022-09-02T08:23:55.130Z,17.83
2022-09-02T08:24:59.526Z,17.87
2022-09-02T08:26:03.937Z,17.89
2022-09-02T08:27:08.256Z,17.89
2022-09-02T08:28:12.638Z,17.92
2022-09-02T08:29:17.011Z,17.96
2022-09-02T08:31:50.835Z,18.01
2022-09-02T08:32:53.104Z,18.06
2022-09-02T08:33:57.465Z,18.11
2022-09-02T08:35:01.815Z,18.17
2022-09-02T08:36:06.216Z,18.21
2022-09-02T08:37:10.719Z,18.23
2022-09-02T08:38:15.078Z,18.26
2022-09-02T08:39:19.516Z,18.27
2022-09-02T08:40:23.971Z,18.30
2022-09-02T08:41:28.209Z,18.33
2022-09-02T08:42:32.598Z,18.34
2022-09-02T08:43:36.971Z,18.36
2022-09-02T08:44:41.333Z,18.38
2022-09-02T08:45:45.795Z,18.41
2022-09-02T08:46:50.056Z,18.42
2022-09-02T08:47:54.479Z,18.43
2022-09-02T08:48:58.964Z,18.45
2022-09-02T08:50:03.294Z,18.46
2022-09-02T08:51:07.680Z,18.46
2022-09-02T08:52:17.179Z,18.50
2022-09-02T08:53:16.448Z,18.52
2022-09-02T08:54:20.851Z,18.56
2022-09-02T08:55:25.135Z,18.56
2022-09-02T08:56:29.571Z,18.60
2022-09-02T08:57:34.000Z,18.62
2022-09-02T08:58:38.480Z,18.65
2022-09-02T08:59:42.819Z,18.69
2022-09-02T09:00:47.273Z,18.70
2022-09-02T09:01:51.635Z,18.72
2022-09-02T09:02:55.937Z,18.72
2022-09-02T09:04:00.325Z,18.73
2022-09-02T09:05:07.664Z,18.77
2022-09-02T09:06:11.071Z,18.79
2022-09-02T09:07:15.378Z,18.81
2022-09-02T09:08:21.641Z,18.84
2022-09-02T09:09:24.152Z,18.87
2022-09-02T09:10:28.493Z,18.90
2022-09-02T09:11:32.881Z,18.92
2022-09-02T09:12:37.264Z,18.95
2022-09-02T09:13:41.734Z,18.97
2022-09-02T09:14:45.987Z,19.00
2022-09-02T09:15:50.262Z,19.06
2022-09-02T09:16:54.750Z,19.10
2022-09-02T09:17:58.922Z,19.17
2022-09-02T09:19:06.917Z,19.26
2022-09-02T09:20:07.813Z,19.36
2022-09-02T09:21:12.162Z,19.41
2022-09-02T09:22:16.468Z,19.43
2022-09-02T09:23:22.092Z,19.42
2022-09-02T09:24:25.192Z,19.41
2022-09-02T09:25:29.614Z,19.39
2022-09-02T09:26:33.933Z,19.37
2022-09-02T09:27:38.263Z,19.37
2022-09-02T09:28:42.619Z,19.36
2022-09-02T09:29:47.024Z,19.39
2022-09-02T09:30:51.407Z,19.43
2022-09-02T09:31:55.865Z,19.46
2022-09-02T09:33:00.173Z,19.50
2022-09-02T09:34:04.452Z,19.54
2022-09-02T09:35:08.892Z,19.60
2022-09-02T09:36:16.217Z,19.62
2022-09-02T09:37:19.704Z,19.67
2022-09-02T09:38:24.124Z,19.70
2022-09-02T09:39:28.428Z,19.71
2022-09-02T09:40:33.923Z,19.76
2022-09-02T09:41:37.849Z,19.84
2022-09-02T09:42:43.818Z,19.90
2022-09-02T09:43:46.672Z,19.98
2022-09-02T09:44:51.040Z,20.12
2022-09-02T09:45:55.449Z,20.30
2022-09-02T09:46:59.774Z,20.48
2022-09-02T09:48:04.159Z,20.63
2022-09-02T09:49:08.613Z,20.76
2022-09-02T09:50:13.037Z,20.85
2022-09-02T09:51:17.398Z,20.90
2022-09-02T09:52:21.747Z,20.89
2022-09-02T09:53:26.257Z,20.87
2022-09-02T09:54:30.588Z,20.81
2022-09-02T09:55:39.796Z,20.75
2022-09-02T09:56:39.351Z,20.72
2022-09-02T09:57:44.789Z,20.61
2022-09-02T09:58:48.088Z,20.57
2022-09-02T09:59:52.490Z,20.57
2022-09-02T10:00:56.881Z,20.56
2022-09-02T10:02:01.252Z,20.50
2022-09-02T10:03:05.542Z,20.43
2022-09-02T10:04:32.368Z,20.38
2022-09-02T10:05:14.478Z,20.38
2022-09-02T10:06:18.989Z,20.41
2022-09-02T10:07:23.235Z,20.45
2022-09-02T10:08:27.584Z,20.43
2022-09-02T10:09:31.946Z,20.38
2022-09-02T10:10:36.359Z,20.34
2022-09-02T10:11:40.714Z,20.24
2022-09-02T10:12:45.100Z,20.24
2022-09-02T10:13:49.432Z,20.24
2022-09-02T10:14:53.797Z,20.26
2022-09-02T10:15:58.222Z,20.25
2022-09-02T10:17:02.595Z,20.28
2022-09-02T10:18:07.037Z,20.28
2022-09-02T10:19:11.558Z,20.31
2022-09-02T10:20:15.990Z,20.36
2022-09-02T10:21:20.268Z,20.43
2022-09-02T10:22:24.608Z,20.46
2022-09-02T10:23:29.055Z,20.50
2022-09-02T10:24:33.402Z,20.53
2022-09-02T10:25:40.851Z,20.57
2022-09-02T10:26:44.309Z,20.58
2022-09-02T10:27:48.654Z,20.52
2022-09-02T10:28:53.031Z,20.47
2022-09-02T10:29:57.411Z,20.48
2022-09-02T10:31:01.878Z,20.49
2022-09-02T10:32:06.252Z,20.49
2022-09-02T10:33:10.576Z,20.52
2022-09-02T10:34:14.951Z,20.55
2022-09-02T10:35:19.291Z,20.57
2022-09-02T10:36:37.648Z,20.59
2022-09-02T10:37:41.000Z,20.62
2022-09-02T10:38:45.254Z,20.61
2022-09-02T10:39:49.714Z,20.65
2022-09-02T10:40:54.143Z,20.69
2022-09-02T10:41:58.431Z,20.75
2022-09-02T10:43:02.846Z,20.74
2022-09-02T10:44:07.242Z,20.75
2022-09-02T10:45:11.564Z,20.77
2022-09-02T10:46:15.944Z,20.78
2022-09-02T10:47:20.232Z,20.80
2022-09-02T10:48:24.741Z,20.86
2022-09-02T10:49:29.068Z,20.88
2022-09-02T10:50:33.420Z,20.90
2022-09-02T10:51:37.809Z,20.90
2022-09-02T10:52:42.263Z,20.95
2022-09-02T10:53:46.598Z,20.96
2022-09-02T10:54:54.057Z,20.98
2022-09-02T10:55:57.577Z,20.97
2022-09-02T10:57:01.916Z,20.95
2022-09-02T10:58:06.502Z,20.96
2022-09-02T10:59:10.722Z,20.95
2022-09-02T11:00:15.127Z,20.95
2022-09-02T11:01:19.622Z,20.91
2022-09-02T11:02:23.958Z,20.88
2022-09-02T11:03:28.486Z,20.94
2022-09-02T11:04:32.766Z,21.01
2022-09-02T11:05:37.218Z,21.04
2022-09-02T11:07:01.556Z,21.07
2022-09-02T11:07:46.447Z,21.12
2022-09-02T11:08:50.705Z,21.15
2022-09-02T11:09:54.986Z,21.06
2022-09-02T11:10:59.512Z,21.06
2022-09-02T11:12:03.907Z,21.07
2022-09-02T11:13:08.342Z,21.05
2022-09-02T11:14:12.734Z,21.04
2022-09-02T11:15:17.174Z,21.01
2022-09-02T11:16:21.644Z,20.96
2022-09-02T11:17:25.959Z,20.97
2022-09-02T11:18:30.401Z,20.98
2022-09-02T11:19:34.779Z,21.01
2022-09-02T11:21:48.349Z,21.05
2022-09-02T11:22:54.304Z,21.09
2022-09-02T11:23:57.006Z,21.11
2022-09-02T11:25:01.464Z,21.14
2022-09-02T11:26:05.860Z,21.19
2022-09-02T11:27:25.970Z,21.18
2022-09-02T11:28:14.655Z,21.19
2022-09-02T11:29:19.072Z,21.19
2022-09-02T11:30:23.499Z,21.21
2022-09-02T11:31:27.797Z,21.24
2022-09-02T11:32:32.191Z,21.27
2022-09-02T11:33:36.557Z,21.32
2022-09-02T11:34:41.047Z,21.32
2022-09-02T11:35:45.378Z,21.23
2022-09-02T11:36:49.809Z,21.23
2022-09-02T11:37:54.184Z,21.25
2022-09-02T11:38:58.672Z,21.28
2022-09-02T11:40:23.554Z,21.27
2022-09-02T11:41:37.755Z,21.26
2022-09-02T11:42:11.924Z,21.27
2022-09-02T11:43:16.189Z,21.29
2022-09-02T11:44:20.604Z,21.33
2022-09-02T11:45:25.090Z,21.37
2022-09-02T11:46:29.505Z,21.40
2022-09-02T11:47:33.777Z,21.39
2022-09-02T11:48:38.151Z,21.43
2022-09-02T11:49:42.598Z,21.46
2022-09-02T11:50:46.955Z,21.50
2022-09-02T11:51:51.347Z,21.53
2022-09-02T11:52:55.804Z,21.59
2022-09-02T11:54:00.226Z,21.69
2022-09-02T11:55:04.621Z,21.76
2022-09-02T11:56:08.967Z,21.82
2022-09-02T11:57:13.386Z,21.86
2022-09-02T11:59:51.211Z,21.81
2022-09-02T12:00:54.197Z,21.79
2022-09-02T12:01:58.602Z,21.87
2022-09-02T12:03:12.112Z,21.97
2022-09-02T12:05:12.009Z,22.15
2022-09-02T12:06:16.336Z,22.24
2022-09-02T12:07:26.556Z,22.27
2022-09-02T12:08:27.046Z,22.38
2022-09-02T12:09:31.452Z,22.47
2022-09-02T12:10:35.817Z,22.54
2022-09-02T12:11:40.204Z,22.69
2022-09-02T12:12:45.013Z,22.84
2022-09-02T12:14:53.383Z,23.09
2022-09-02T12:15:57.824Z,23.19
2022-09-02T12:17:02.179Z,23.30
2022-09-02T12:18:06.657Z,23.30
2022-09-02T12:19:11.022Z,23.19
2022-09-02T12:20:15.474Z,23.08
2022-09-02T12:21:22.545Z,23.02
2022-09-02T12:22:24.237Z,23.10
2022-09-02T12:23:28.645Z,23.23
2022-09-02T12:24:39.054Z,23.35
2022-09-02T12:25:42.070Z,23.47
2022-09-02T12:26:46.461Z,23.54
2022-09-02T12:27:50.847Z,23.49
2022-09-02T12:28:55.305Z,23.55
2022-09-02T12:29:59.702Z,23.53
2022-09-02T12:31:04.122Z,23.51
2022-09-02T12:32:08.481Z,23.49
2022-09-02T12:33:26.959Z,23.64
2022-09-02T12:34:30.374Z,23.83
2022-09-02T12:35:34.955Z,23.99
2022-09-02T12:36:39.141Z,24.11
2022-09-02T12:37:43.503Z,24.16
2022-09-02T12:38:47.988Z,24.28
2022-09-02T12:39:52.465Z,24.37
2022-09-02T12:40:56.896Z,24.51
2022-09-02T12:42:01.192Z,24.59
2022-09-02T12:43:05.662Z,24.43
2022-09-02T12:44:10.038Z,24.43
2022-09-02T12:45:14.467Z,24.25
2022-09-02T12:46:18.998Z,24.26
2022-09-02T12:47:23.261Z,24.36
2022-09-02T12:48:38.195Z,24.51
2022-09-02T12:49:32.161Z,24.52
2022-09-02T12:50:36.509Z,24.60
2022-09-02T12:51:40.935Z,24.70
2022-09-02T12:52:45.389Z,24.66
2022-09-02T12:53:49.813Z,24.61
2022-09-02T12:54:54.304Z,24.61
2022-09-02T12:55:58.737Z,24.62
2022-09-02T12:57:03.124Z,24.58
2022-09-02T12:58:08.565Z,24.48
2022-09-02T12:59:12.676Z,24.45
2022-09-02T13:00:17.088Z,24.21
2022-09-02T13:01:21.890Z,24.03
2022-09-02T13:02:29.571Z,23.94
2022-09-02T13:03:30.374Z,24.01
2022-09-02T13:04:34.846Z,24.07
2022-09-02T13:05:39.216Z,24.22
2022-09-02T13:06:44.493Z,24.37
2022-09-02T13:07:48.042Z,24.49
2022-09-02T13:08:52.530Z,24.56
2022-09-02T13:09:56.890Z,24.47
2022-09-02T13:11:01.281Z,24.43
2022-09-02T13:12:05.693Z,24.38
2022-09-02T13:13:10.207Z,24.30
2022-09-02T13:14:14.674Z,24.32
2022-09-02T13:15:22.688Z,24.35
2022-09-02T13:16:23.508Z,24.39
2022-09-02T13:17:43.250Z,24.37
2022-09-02T13:18:32.298Z,24.27
2022-09-02T13:19:36.734Z,24.21
2022-09-02T13:20:41.093Z,24.09
2022-09-02T13:21:45.480Z,24.04
2022-09-02T13:22:49.863Z,23.91
2022-09-02T13:23:54.349Z,23.86
2022-09-02T13:24:58.857Z,23.86
2022-09-02T13:26:03.140Z,23.85
2022-09-02T13:27:11.111Z,23.93
2022-09-02T13:28:11.961Z,24.05
2022-09-02T13:29:16.352Z,24.17
2022-09-02T13:30:20.692Z,24.33
2022-09-02T13:31:25.144Z,24.46
2022-09-02T13:32:29.533Z,24.59
2022-09-02T13:33:33.939Z,24.62
2022-09-02T13:34:38.443Z,24.61
2022-09-02T13:35:42.802Z,24.36
2022-09-02T13:36:47.271Z,24.20
2022-09-02T13:37:51.844Z,24.18
2022-09-02T13:38:56.110Z,24.24
2022-09-02T13:40:00.604Z,24.35
2022-09-02T13:41:05.054Z,24.45
2022-09-02T13:42:11.163Z,24.48
2022-09-02T13:43:13.873Z,24.35
2022-09-02T13:44:18.255Z,24.22
2022-09-02T13:45:22.658Z,24.19
2022-09-02T13:46:27.089Z,24.16
2022-09-02T13:47:34.469Z,24.11
2022-09-02T13:48:38.053Z,24.01
2022-09-02T13:49:42.395Z,23.86
2022-09-02T13:50:46.823Z,23.70
2022-09-02T13:51:51.311Z,23.51
2022-09-02T13:53:45.180Z,23.35
2022-09-02T13:54:22.024Z,23.17
2022-09-02T13:55:04.576Z,22.95
2022-09-02T13:56:08.904Z,22.70
2022-09-02T13:57:13.285Z,22.55